Alger, Ohio
Current Conditions -  °F | °C
As of 7:53 PM on Thursday 18 Dec 2014 (Local Time) from KAOH Reporting Station
Haze Haze  
Wind Chill: 24°   Ceiling: 1200
Heat Index: 30°   Visibility: 6mi
Dew Point: 23°   Wind: 6mph
Humidity: 75%   Direction: 300°WNW
Pressure: 30.2"   Gusts: NA
Location:  40.71°N, 83.84°W
Report Text: KAOH 190053Z AUTO 30005KT 6SM HZ OVC012 M01/M05 A3020 RMK AO2 SLP238 T10111050
Loading
Personal Weather Stations






























Interactive Weather Map New forecast layout! Learn more

10-Day Weather Forecast

Advertisements
Track Severe Weather on mobile